Flight Track Log - Related Links

Times and Time Zones

All times are in EDT time to prevent confusion due to time zone crossing. See the RPA3275 flight status page for this flight to view local times or setup timezone preferences in your user account.

Time Position Orientation Groundspeed Altitude Reporting Facility
EDT Latitude Longitude Course Direction KTS MPH feet Rate Location/Type
Thu 06:58:33 AM 42.7631 -73.8061 220° Southwest 150 173 1,400  Level Boston Center
Thu 06:59:40 AM 42.7939 -73.8575 309° West 243 280 3,900 2,882 Climbing Boston Center
Thu 07:00:40 AM 42.7842 -73.9564 262° West 264 304 7,500 3,550 Climbing Boston Center
Thu 07:01:00 AM 42.7333 -74.2645 270° West  Level FlightAware Approximate
Thu 07:01:40 AM 42.7744 -74.0608 263° West 274 315 11,000  Level Boston Center
Thu 07:02:00 AM 42.6939 -74.3590 220° Southwest  Level FlightAware Approximate
Thu 07:02:40 AM 42.7603 -74.1736 260° West 293 337 14,000  Level Boston Center
Thu 07:03:00 AM 42.6282 -74.4330 220° Southwest  Level FlightAware Approximate
Thu 07:03:40 AM 42.7481 -74.2778 261° West 317 365 16,000  Level Boston Center
Thu 07:04:40 AM 42.6819 -74.3806 229° Southwest 324 373 16,000  Level Boston Center
Thu 07:05:40 AM 42.6181 -74.4544 220° Southwest 333 383 16,000  Level Boston Center
Thu 07:06:40 AM 42.5414 -74.5422 220° Southwest 338 389 16,000  Level Boston Center
Thu 07:07:40 AM 42.4756 -74.6161 220° Southwest 338 389 16,000  Level Boston Center
Thu 07:08:40 AM 42.3964 -74.7089 221° Southwest 344 396 16,000  Level Boston Center
Thu 07:09:40 AM 42.3325 -74.7797 219° Southwest 344 396 16,000  Level Boston Center
Thu 07:10:40 AM 42.2556 -74.8722 222° Southwest 344 396 16,000 37 Level Boston Center
Thu 07:12:24 AM 42.1269 -75.0017 217° Southwest 343 395 16,100  Climbing New York Center
Thu 07:13:22 AM 42.0453 -75.0689 211° Southwest 348 400 16,000 -51 Descending New York Center
Thu 07:14:22 AM 41.9725 -75.1311 212° Southwest 348 400 16,000  Level New York Center
Thu 07:15:23 AM 41.8908 -75.1953 210° Southwest 348 400 16,000  Level New York Center
Thu 07:16:23 AM 41.8008 -75.2672 211° Southwest 353 406 16,000  Level New York Center
Thu 07:17:24 AM 41.7192 -75.3339 211° Southwest 353 406 16,000  Level New York Center
Thu 07:18:24 AM 41.6394 -75.3978 211° Southwest 347 399 16,000 -800 Level New York Center
Thu 07:19:24 AM 41.5642 -75.4592 211° Southwest 352 405 14,400 -1,800 Descending New York Center
Thu 07:20:24 AM 41.4783 -75.5281 211° Southwest 347 399 12,400 -1,200 Descending New York Center
Thu 07:21:24 AM 41.3986 -75.5914 211° Southwest 341 392 12,000 -203 Descending New York Center
Thu 07:22:22 AM 41.3192 -75.6522 210° Southwest 341 392 12,000  Level New York Center
Thu 07:23:22 AM 41.2319 -75.6928 199° South 335 386 12,000  Level New York Center
Thu 07:24:23 AM 41.1489 -75.6867 177° South 335 386 12,000  Level New York Center
Thu 07:25:24 AM 41.0556 -75.6744 174° South 335 386 12,000  Level New York Center
Thu 07:26:24 AM 40.9614 -75.6372 163° South 348 400 12,000 50 Level New York Center
Thu 07:27:23 AM 40.8692 -75.6006 163° South 353 406 12,100  Climbing New York Center
Thu 07:28:23 AM 40.7686 -75.5606 163° South 353 406 12,000 -149 Descending New York Center
Thu 07:29:24 AM 40.6744 -75.5211 162° South 353 406 11,800 -600 Descending New York Center
Thu 07:30:23 AM 40.5842 -75.4847 163° South 353 406 10,800 -908 Descending New York Center
Thu 07:31:23 AM 40.5061 -75.4550 164° South 345 397 10,000 -650 Descending New York Center
Thu 07:32:23 AM 40.4250 -75.4003 153° Southeast 309 356 9,500 -1,059 Descending New York Center
Thu 07:33:22 AM 40.3522 -75.3383 147° Southeast 297 342 7,900 -1,700 Descending New York Center
Thu 07:34:23 AM 40.2939 -75.2853 145° Southeast 292 336 6,100 -934 Descending New York Center
Thu 07:35:24 AM 40.2294 -75.2242 144° Southeast 292 336 6,000 -50 Descending New York Center
Thu 07:36:22 AM 40.1525 -75.1650 150° Southeast 292 336 6,000  Level New York Center
Thu 07:37:23 AM 40.0861 -75.1036 145° Southeast 286 329 6,000 -517 Level New York Center
Thu 07:38:18 AM 40.0333 -75.0500 142° Southeast 283 326 5,000 -835 Descending Philadelphia TRACON
Thu 07:39:18 AM 39.9667 -75.0000 150° Southeast 246 283 4,400 -800 Descending Philadelphia TRACON
Thu 07:40:18 AM 39.9167 -75.0000 180° South 183 211 3,400 -1,000 Descending Philadelphia TRACON

Login

Don't have an account? Register now (free) for customized features, flight alerts, and more!